F/V Adeline Stephen — FGUF — position and weather

sailwx.info

Track history (hours):
 
Tides and Currents Weather Stations Pressure Air Temp Water Temp Dewpoint Dewpoint Depression Visibility Wind Speed Wind Dir Waves Ship Positions

F/V Adeline Stephen

Last reported at 2015-Sep-03 15:34 UTC. Time now 2015-Sep-04 07:52 UTC.
Position N 47°42' W 003°23'.

Length 18 m.

Type: Fishing. MMSI: 228929000.

Date/timePositionNaut miles runAvg speedWind from/ knotsBaromVisibWave heightAir tempDewpointWater temp
2015-Sep-03 15:34N 47°42' W 003°23'27 9.1
2015-Sep-03 12:33N 47°44' W 004°03'6 0.6
2015-Sep-03 02:30N 47°44' W 003°55'9 9.2
2015-Sep-03 01:33N 47°43' W 003°42'9 9.1
2015-Sep-03 00:34N 47°41' W 003°29'5 5.2
2015-Sep-02 23:33N 47°44' W 003°22'0 0.0
2015-Sep-02 22:34N 47°44' W 003°22'2 1.9
2015-Sep-02 21:34N 47°42' W 003°23'8 8.3
2015-Sep-02 20:33N 47°42' W 003°35'4 0.3
2015-Sep-02 05:33N 47°43' W 003°41'9 8.8
2015-Sep-02 04:33N 47°41' W 003°28'5 4.8
2015-Sep-02 03:34N 47°44' W 003°22'0 0.1
2015-Sep-02 02:34N 47°44' W 003°22'0 0.0
2015-Sep-02 01:33N 47°44' W 003°22'0 0.0
2015-Sep-02 00:33N 47°44' W 003°22'7 6.5
2015-Sep-01 23:33N 47°42' W 003°31'9 0.4
2015-Sep-01 00:30N 47°40' W 003°44'8 8.7
2015-Aug-31 23:34N 47°40' W 003°32'7 7.4
2015-Aug-31 22:33N 47°44' W 003°22'0 0.0
2015-Aug-31 21:34N 47°44' W 003°22'1 0.9
2015-Aug-31 20:34N 47°43' W 003°22'7 7.3
2015-Aug-31 19:33N 47°42' W 003°33'12 0.9
2015-Aug-31 05:20N 47°39' W 003°51'7 9.0
2015-Aug-31 04:33N 47°39' W 003°40'9 8.6
2015-Aug-31 03:34N 47°40' W 003°28'5 5.2
2015-Aug-31 02:34N 47°44' W 003°22'0 0.1
2015-Aug-31 01:34N 47°44' W 003°22'0 0.5
2015-Aug-31 00:34N 47°43' W 003°22'9 8.7
2015-Aug-30 23:33N 47°40' W 003°34'51 1.1
2015-Aug-28 23:23N 47°40' W 004°50'3 0.6
2015-Aug-28 18:24N 47°38' W 004°47'11 5.5
2015-Aug-28 16:25N 47°30' W 004°37'35 5.5
2015-Aug-28 10:06N 47°37' W 003°47'4 7.0
2015-Aug-28 09:33N 47°38' W 003°42'7 7.3
2015-Aug-28 08:33N 47°40' W 003°31'7 7.2
2015-Aug-28 07:33N 47°44' W 003°22'0 0.2
2015-Aug-28 06:33N 47°44' W 003°22'0 0.0
2015-Aug-28 05:33N 47°44' W 003°22'0 0.0
2015-Aug-28 04:33N 47°44' W 003°22'0 0.0
2015-Aug-28 03:33N 47°44' W 003°22'0 0.1
2015-Aug-28 02:33N 47°44' W 003°22'3 2.7
2015-Aug-28 01:33N 47°41' W 003°24'9 8.5
2015-Aug-28 00:33N 47°40' W 003°36'5 0.2
2015-Aug-27 00:33N 47°39' W 003°43'8 8.1
2015-Aug-26 23:33N 47°40' W 003°31'7 7.2
2015-Aug-26 22:33N 47°44' W 003°22'  
Track history (hours):
 
Tides and Currents Weather Stations Pressure Air Temp Water Temp Dewpoint Dewpoint Depression Visibility Wind Speed Wind Dir Waves Ship Positions

F/V Adeline Stephen

Last reported at 2015-Sep-03 15:34 UTC. Time now 2015-Sep-04 07:52 UTC.
Position N 47°42' W 003°23'.

Length 18 m.

Type: Fishing. MMSI: 228929000.

Date/timePositionNaut miles runAvg speedWind from/ knotsBaromVisibWave heightAir tempDewpointWater temp
2015-Sep-03 15:34N 47°42' W 003°23'27 9.1
2015-Sep-03 12:33N 47°44' W 004°03'6 0.6
2015-Sep-03 02:30N 47°44' W 003°55'9 9.2
2015-Sep-03 01:33N 47°43' W 003°42'9 9.1
2015-Sep-03 00:34N 47°41' W 003°29'5 5.2
2015-Sep-02 23:33N 47°44' W 003°22'0 0.0
2015-Sep-02 22:34N 47°44' W 003°22'2 1.9
2015-Sep-02 21:34N 47°42' W 003°23'8 8.3
2015-Sep-02 20:33N 47°42' W 003°35'4 0.3
2015-Sep-02 05:33N 47°43' W 003°41'9 8.8
2015-Sep-02 04:33N 47°41' W 003°28'5 4.8
2015-Sep-02 03:34N 47°44' W 003°22'0 0.1
2015-Sep-02 02:34N 47°44' W 003°22'0 0.0
2015-Sep-02 01:33N 47°44' W 003°22'0 0.0
2015-Sep-02 00:33N 47°44' W 003°22'7 6.5
2015-Sep-01 23:33N 47°42' W 003°31'9 0.4
2015-Sep-01 00:30N 47°40' W 003°44'8 8.7
2015-Aug-31 23:34N 47°40' W 003°32'7 7.4
2015-Aug-31 22:33N 47°44' W 003°22'0 0.0
2015-Aug-31 21:34N 47°44' W 003°22'1 0.9
2015-Aug-31 20:34N 47°43' W 003°22'7 7.3
2015-Aug-31 19:33N 47°42' W 003°33'12 0.9
2015-Aug-31 05:20N 47°39' W 003°51'7 9.0
2015-Aug-31 04:33N 47°39' W 003°40'9 8.6
2015-Aug-31 03:34N 47°40' W 003°28'5 5.2
2015-Aug-31 02:34N 47°44' W 003°22'0 0.1
2015-Aug-31 01:34N 47°44' W 003°22'0 0.5
2015-Aug-31 00:34N 47°43' W 003°22'9 8.7
2015-Aug-30 23:33N 47°40' W 003°34'51 1.1
2015-Aug-28 23:23N 47°40' W 004°50'3 0.6
2015-Aug-28 18:24N 47°38' W 004°47'11 5.5
2015-Aug-28 16:25N 47°30' W 004°37'35 5.5
2015-Aug-28 10:06N 47°37' W 003°47'4 7.0
2015-Aug-28 09:33N 47°38' W 003°42'7 7.3
2015-Aug-28 08:33N 47°40' W 003°31'7 7.2
2015-Aug-28 07:33N 47°44' W 003°22'0 0.2
2015-Aug-28 06:33N 47°44' W 003°22'0 0.0
2015-Aug-28 05:33N 47°44' W 003°22'0 0.0
2015-Aug-28 04:33N 47°44' W 003°22'0 0.0
2015-Aug-28 03:33N 47°44' W 003°22'0 0.1
2015-Aug-28 02:33N 47°44' W 003°22'3 2.7
2015-Aug-28 01:33N 47°41' W 003°24'9 8.5
2015-Aug-28 00:33N 47°40' W 003°36'5 0.2
2015-Aug-27 00:33N 47°39' W 003°43'8 8.1
2015-Aug-26 23:33N 47°40' W 003°31'7 7.2
2015-Aug-26 22:33N 47°44' W 003°22'  

Dump ship's entire track history